Terminal Aerodrome Forecast
Issued by NWS Memphis, TN

Home | Current Version | Previous Version | Text Only | Print | Product List | Glossary On
Versions: 1 2 3 4 5 6 7 8 9 10 11 12 13 14 15
969
FTUS44 KMEG 231130
TAFMKL
TAF
KMKL 231130Z 2312/2412 33017G27KT P6SM OVC020
     FM231300 33017G27KT P6SM SCT020
      TEMPO 2316/2319 SCT008 OVC015
     FM231900 33012G20KT P6SM OVC015
     FM240000 33010KT P6SM OVC020
     FM240300 34005KT P6SM SCT030
      TEMPO 2408/2412 3SM BR=

USA.gov is the U.S. government's official web portal to all federal, state and local government web resources and services.